sensor_id;sensor_type;location;lat;lon;timestamp;pressure;altitude;pressure_sealevel;temperature;humidity
55604;BME280;41468;48.838;9.330;2023-11-18T00:01:32;99184.69;;;6.40;100.00
55604;BME280;41468;48.838;9.330;2023-11-18T00:04:02;99179.22;;;6.31;100.00
55604;BME280;41468;48.838;9.330;2023-11-18T00:06:29;99179.72;;;6.42;100.00
55604;BME280;41468;48.838;9.330;2023-11-18T00:09:01;99173.03;;;6.39;100.00
55604;BME280;41468;48.838;9.330;2023-11-18T00:11:28;99185.63;;;6.27;100.00
55604;BME280;41468;48.838;9.330;2023-11-18T00:13:55;99183.72;;;6.36;100.00
55604;BME280;41468;48.838;9.330;2023-11-18T00:16:22;99184.84;;;6.35;100.00
55604;BME280;41468;48.838;9.330;2023-11-18T00:18:49;99181.78;;;6.36;100.00
55604;BME280;41468;48.838;9.330;2023-11-18T00:21:20;99183.84;;;6.31;100.00
55604;BME280;41468;48.838;9.330;2023-11-18T00:23:47;99186.13;;;6.46;100.00
55604;BME280;41468;48.838;9.330;2023-11-18T00:26:14;99181.47;;;6.38;100.00
55604;BME280;41468;48.838;9.330;2023-11-18T00:28:41;99177.00;;;6.33;100.00
55604;BME280;41468;48.838;9.330;2023-11-18T00:31:08;99186.41;;;6.27;100.00
55604;BME280;41468;48.838;9.330;2023-11-18T00:33:35;99183.72;;;6.45;100.00
55604;BME280;41468;48.838;9.330;2023-11-18T00:36:02;99187.09;;;6.50;100.00
55604;BME280;41468;48.838;9.330;2023-11-18T00:38:30;99184.97;;;6.47;100.00
55604;BME280;41468;48.838;9.330;2023-11-18T00:40:57;99190.59;;;6.59;100.00
55604;BME280;41468;48.838;9.330;2023-11-18T00:43:24;99190.09;;;6.49;100.00
55604;BME280;41468;48.838;9.330;2023-11-18T00:45:51;99182.59;;;6.63;100.00
55604;BME280;41468;48.838;9.330;2023-11-18T00:48:18;99183.72;;;6.53;100.00
55604;BME280;41468;48.838;9.330;2023-11-18T00:50:44;99176.53;;;6.49;100.00
55604;BME280;41468;48.838;9.330;2023-11-18T00:53:12;99182.75;;;6.49;100.00
55604;BME280;41468;48.838;9.330;2023-11-18T00:55:45;99184.97;;;6.47;100.00
55604;BME280;41468;48.838;9.330;2023-11-18T00:58:12;99178.78;;;6.38;100.00
55604;BME280;41468;48.838;9.330;2023-11-18T01:00:38;99191.38;;;6.51;100.00
55604;BME280;41468;48.838;9.330;2023-11-18T01:03:05;99189.94;;;6.54;100.00
55604;BME280;41468;48.838;9.330;2023-11-18T01:05:32;99194.59;;;6.53;100.00
55604;BME280;41468;48.838;9.330;2023-11-18T01:07:59;99193.63;;;6.67;100.00
55604;BME280;41468;48.838;9.330;2023-11-18T01:10:26;99191.72;;;6.58;100.00
55604;BME280;41468;48.838;9.330;2023-11-18T01:12:53;99191.53;;;6.63;100.00
55604;BME280;41468;48.838;9.330;2023-11-18T01:15:22;99194.72;;;6.66;100.00
55604;BME280;41468;48.838;9.330;2023-11-18T01:17:54;99188.03;;;6.63;100.00
55604;BME280;41468;48.838;9.330;2023-11-18T01:20:26;99195.53;;;6.57;100.00
55604;BME280;41468;48.838;9.330;2023-11-18T01:22:58;99196.16;;;6.54;100.00
55604;BME280;41468;48.838;9.330;2023-11-18T01:25:30;99195.53;;;6.57;100.00
55604;BME280;41468;48.838;9.330;2023-11-18T01:28:02;99202.38;;;6.63;100.00
55604;BME280;41468;48.838;9.330;2023-11-18T01:44:26;99207.81;;;6.63;100.00
55604;BME280;41468;48.838;9.330;2023-11-18T01:46:56;99217.09;;;6.54;100.00
55604;BME280;41468;48.838;9.330;2023-11-18T01:49:23;99213.41;;;6.50;100.00
55604;BME280;41468;48.838;9.330;2023-11-18T01:51:50;99212.16;;;6.56;100.00
55604;BME280;41468;48.838;9.330;2023-11-18T01:54:21;99214.84;;;6.64;100.00
55604;BME280;41468;48.838;9.330;2023-11-18T01:56:49;99213.88;;;6.60;100.00
55604;BME280;41468;48.838;9.330;2023-11-18T01:59:16;99211.16;;;6.60;100.00
55604;BME280;41468;48.838;9.330;2023-11-18T02:01:52;99214.69;;;6.44;100.00
55604;BME280;41468;48.838;9.330;2023-11-18T02:04:20;99209.75;;;6.46;100.00
55604;BME280;41468;48.838;9.330;2023-11-18T02:06:48;99211.16;;;6.52;100.00
55604;BME280;41468;48.838;9.330;2023-11-18T02:09:17;99209.91;;;6.67;100.00
55604;BME280;41468;48.838;9.330;2023-11-18T02:14:14;99213.06;;;6.69;100.00
55604;BME280;41468;48.838;9.330;2023-11-18T02:16:42;99204.47;;;6.67;100.00
55604;BME280;41468;48.838;9.330;2023-11-18T02:19:24;99211.81;;;6.75;100.00
55604;BME280;41468;48.838;9.330;2023-11-18T02:21:54;99218.69;;;6.81;100.00
55604;BME280;41468;48.838;9.330;2023-11-18T02:24:26;99213.41;;;6.76;100.00
55604;BME280;41468;48.838;9.330;2023-11-18T02:26:56;99219.63;;;6.68;100.00
55604;BME280;41468;48.838;9.330;2023-11-18T02:29:25;99213.91;;;6.69;100.00
55604;BME280;41468;48.838;9.330;2023-11-18T02:31:57;99213.41;;;6.67;100.00
55604;BME280;41468;48.838;9.330;2023-11-18T02:34:28;99215.94;;;6.63;100.00
55604;BME280;41468;48.838;9.330;2023-11-18T02:36:58;99218.03;;;6.49;100.00
55604;BME280;41468;48.838;9.330;2023-11-18T02:39:40;99207.34;;;6.61;100.00
55604;BME280;41468;48.838;9.330;2023-11-18T02:42:10;99212.44;;;6.54;100.00
55604;BME280;41468;48.838;9.330;2023-11-18T02:44:38;99216.94;;;6.68;100.00
55604;BME280;41468;48.838;9.330;2023-11-18T02:47:05;99210.53;;;6.81;100.00
55604;BME280;41468;48.838;9.330;2023-11-18T02:49:35;99206.22;;;6.71;100.00
55604;BME280;41468;48.838;9.330;2023-11-18T02:52:02;99202.38;;;6.63;100.00
55604;BME280;41468;48.838;9.330;2023-11-18T02:54:29;99208.31;;;6.57;100.00
55604;BME280;41468;48.838;9.330;2023-11-18T02:56:56;99208.94;;;6.45;100.00
55604;BME280;41468;48.838;9.330;2023-11-18T02:59:23;99196.16;;;6.37;100.00
55604;BME280;41468;48.838;9.330;2023-11-18T03:01:53;99207.19;;;6.40;100.00
55604;BME280;41468;48.838;9.330;2023-11-18T03:04:21;99200.97;;;6.40;100.00
55604;BME280;41468;48.838;9.330;2023-11-18T03:06:50;99198.56;;;6.38;100.00
55604;BME280;41468;48.838;9.330;2023-11-18T03:09:17;99200.47;;;6.55;100.00
55604;BME280;41468;48.838;9.330;2023-11-18T03:11:45;99189.78;;;6.50;100.00
55604;BME280;41468;48.838;9.330;2023-11-18T03:14:12;99199.53;;;6.60;100.00
55604;BME280;41468;48.838;9.330;2023-11-18T03:16:39;99200.50;;;6.64;100.00
55604;BME280;41468;48.838;9.330;2023-11-18T03:19:06;99195.53;;;6.66;100.00
55604;BME280;41468;48.838;9.330;2023-11-18T03:21:35;99199.06;;;6.67;100.00
55604;BME280;41468;48.838;9.330;2023-11-18T03:24:03;99205.91;;;6.73;100.00
55604;BME280;41468;48.838;9.330;2023-11-18T03:26:30;99193.16;;;6.64;100.00
55604;BME280;41468;48.838;9.330;2023-11-18T03:28:58;99199.53;;;6.51;100.00
55604;BME280;41468;48.838;9.330;2023-11-18T03:31:25;99197.75;;;6.55;100.00
55604;BME280;41468;48.838;9.330;2023-11-18T03:33:52;99204.47;;;6.58;100.00
55604;BME280;41468;48.838;9.330;2023-11-18T03:36:25;99202.25;;;6.43;100.00
55604;BME280;41468;48.838;9.330;2023-11-18T03:38:52;99199.97;;;6.36;100.00
55604;BME280;41468;48.838;9.330;2023-11-18T03:41:18;99201.09;;;6.26;100.00
55604;BME280;41468;48.838;9.330;2023-11-18T03:43:46;99199.84;;;6.41;100.00
55604;BME280;41468;48.838;9.330;2023-11-18T03:46:14;99208.63;;;6.64;100.00
55604;BME280;41468;48.838;9.330;2023-11-18T03:48:44;99205.28;;;6.67;100.00
55604;BME280;41468;48.838;9.330;2023-11-18T03:51:10;99198.09;;;6.62;100.00
55604;BME280;41468;48.838;9.330;2023-11-18T03:53:37;99200.00;;;6.62;100.00
55604;BME280;41468;48.838;9.330;2023-11-18T03:56:04;99220.44;;;6.59;100.00
55604;BME280;41468;48.838;9.330;2023-11-18T03:58:31;99211.81;;;6.40;100.00
55604;BME280;41468;48.838;9.330;2023-11-18T04:01:00;99218.34;;;6.39;100.00
55604;BME280;41468;48.838;9.330;2023-11-18T04:03:28;99207.97;;;6.41;100.00
55604;BME280;41468;48.838;9.330;2023-11-18T04:06:01;99203.66;;;6.57;100.00
55604;BME280;41468;48.838;9.330;2023-11-18T04:08:27;99209.25;;;6.52;100.00
55604;BME280;41468;48.838;9.330;2023-11-18T04:10:54;99212.28;;;6.42;100.00
55604;BME280;41468;48.838;9.330;2023-11-18T04:13:21;99202.38;;;6.46;100.00
55604;BME280;41468;48.838;9.330;2023-11-18T04:15:48;99199.53;;;6.43;100.00
55604;BME280;41468;48.838;9.330;2023-11-18T04:18:15;99209.59;;;6.59;100.00
55604;BME280;41468;48.838;9.330;2023-11-18T04:20:41;99209.59;;;6.59;100.00
55604;BME280;41468;48.838;9.330;2023-11-18T04:23:09;99214.06;;;6.64;100.00
55604;BME280;41468;48.838;9.330;2023-11-18T04:25:38;99210.38;;;6.60;100.00
55604;BME280;41468;48.838;9.330;2023-11-18T04:28:05;99216.94;;;6.50;100.00
55604;BME280;41468;48.838;9.330;2023-11-18T04:30:31;99216.09;;;6.41;100.00
55604;BME280;41468;48.838;9.330;2023-11-18T04:32:59;99203.97;;;6.38;100.00
55604;BME280;41468;48.838;9.330;2023-11-18T04:35:27;99203.19;;;6.38;100.00
55604;BME280;41468;48.838;9.330;2023-11-18T04:37:53;99209.09;;;6.49;100.00
55604;BME280;41468;48.838;9.330;2023-11-18T04:40:20;99204.31;;;6.46;100.00
55604;BME280;41468;48.838;9.330;2023-11-18T04:42:49;99209.75;;;6.46;100.00
55604;BME280;41468;48.838;9.330;2023-11-18T04:45:16;99197.41;;;6.31;100.00
55604;BME280;41468;48.838;9.330;2023-11-18T04:47:48;99206.84;;;6.25;100.00
55604;BME280;41468;48.838;9.330;2023-11-18T04:50:21;99203.63;;;6.14;100.00
55604;BME280;41468;48.838;9.330;2023-11-18T04:52:48;99202.84;;;6.13;100.00
55604;BME280;41468;48.838;9.330;2023-11-18T04:55:15;99200.13;;;6.13;100.00
55604;BME280;41468;48.838;9.330;2023-11-18T04:57:42;99202.19;;;6.16;100.00
55604;BME280;41468;48.838;9.330;2023-11-18T05:00:10;99202.19;;;6.16;100.00
55604;BME280;41468;48.838;9.330;2023-11-18T05:02:38;99206.63;;;6.12;100.00
55604;BME280;41468;48.838;9.330;2023-11-18T05:05:06;99203.13;;;6.20;100.00
55604;BME280;41468;48.838;9.330;2023-11-18T05:07:33;99201.56;;;6.19;100.00
55604;BME280;41468;48.838;9.330;2023-11-18T05:10:02;99212.06;;;6.12;100.00
55604;BME280;41468;48.838;9.330;2023-11-18T05:12:29;99212.06;;;6.12;100.00
55604;BME280;41468;48.838;9.330;2023-11-18T05:14:56;99201.72;;;6.14;100.00
55604;BME280;41468;48.838;9.330;2023-11-18T05:17:37;99206.19;;;6.19;100.00
55604;BME280;41468;48.838;9.330;2023-11-18T05:20:05;99207.47;;;6.22;100.00
55604;BME280;41468;48.838;9.330;2023-11-18T05:22:35;99208.56;;;6.20;100.00
55604;BME280;41468;48.838;9.330;2023-11-18T05:25:05;99209.53;;;6.16;100.00
55604;BME280;41468;48.838;9.330;2023-11-18T05:27:32;99212.38;;;6.02;100.00
55604;BME280;41468;48.838;9.330;2023-11-18T05:29:59;99215.56;;;6.04;100.00
55604;BME280;41468;48.838;9.330;2023-11-18T05:32:29;99211.56;;;6.02;100.00
55604;BME280;41468;48.838;9.330;2023-11-18T05:34:56;99207.84;;;5.89;100.00
55604;BME280;41468;48.838;9.330;2023-11-18T05:37:24;99205.66;;;6.00;100.00
55604;BME280;41468;48.838;9.330;2023-11-18T05:39:51;99206.81;;;6.07;100.00
55604;BME280;41468;48.838;9.330;2023-11-18T05:42:26;99192.75;;;5.96;100.00
55604;BME280;41468;48.838;9.330;2023-11-18T05:44:57;99203.38;;;5.93;100.00
55604;BME280;41468;48.838;9.330;2023-11-18T05:47:28;99201.59;;;5.88;100.00
55604;BME280;41468;48.838;9.330;2023-11-18T05:49:54;99205.81;;;5.94;100.00
55604;BME280;41468;48.838;9.330;2023-11-18T05:52:22;99200.09;;;6.05;100.00
55604;BME280;41468;48.838;9.330;2023-11-18T05:54:49;99204.84;;;5.99;100.00
55604;BME280;41468;48.838;9.330;2023-11-18T05:57:15;99204.72;;;6.04;100.00
55604;BME280;41468;48.838;9.330;2023-11-18T05:59:50;99201.03;;;6.00;100.00
55604;BME280;41468;48.838;9.330;2023-11-18T06:02:17;99189.06;;;6.01;100.00
55604;BME280;41468;48.838;9.330;2023-11-18T06:04:45;99194.75;;;5.91;100.00
55604;BME280;41468;48.838;9.330;2023-11-18T06:07:12;99193.97;;;5.90;100.00
55604;BME280;41468;48.838;9.330;2023-11-18T06:09:46;99186.16;;;5.89;100.00
55604;BME280;41468;48.838;9.330;2023-11-18T06:12:13;99180.09;;;5.92;100.00
55604;BME280;41468;48.838;9.330;2023-11-18T06:14:40;99159.72;;;5.94;100.00
55604;BME280;41468;48.838;9.330;2023-11-18T06:17:08;99177.97;;;5.80;100.00
55604;BME280;41468;48.838;9.330;2023-11-18T06:19:35;99172.50;;;5.94;100.00
55604;BME280;41468;48.838;9.330;2023-11-18T06:22:02;99180.88;;;5.84;100.00
55604;BME280;41468;48.838;9.330;2023-11-18T06:24:29;99170.19;;;5.79;100.00
55604;BME280;41468;48.838;9.330;2023-11-18T06:26:55;99172.25;;;5.82;100.00
55604;BME280;41468;48.838;9.330;2023-11-18T06:29:22;99181.38;;;5.86;100.00
55604;BME280;41468;48.838;9.330;2023-11-18T06:31:50;99177.22;;;5.88;100.00
55604;BME280;41468;48.838;9.330;2023-11-18T06:34:17;99200.19;;;5.91;100.00
55604;BME280;41468;48.838;9.330;2023-11-18T06:36:44;99202.88;;;5.91;100.00
55604;BME280;41468;48.838;9.330;2023-11-18T06:39:12;99204.91;;;5.68;100.00
55604;BME280;41468;48.838;9.330;2023-11-18T06:41:39;99210.84;;;5.79;100.00
55604;BME280;41468;48.838;9.330;2023-11-18T06:44:19;99210.94;;;6.05;100.00
55604;BME280;41468;48.838;9.330;2023-11-18T06:46:50;99221.44;;;5.97;100.00
55604;BME280;41468;48.838;9.330;2023-11-18T06:49:17;99217.25;;;5.91;100.00
55604;BME280;41468;48.838;9.330;2023-11-18T06:51:45;99218.81;;;5.75;100.00
55604;BME280;41468;48.838;9.330;2023-11-18T06:54:12;99214.63;;;5.69;100.00
55604;BME280;41468;48.838;9.330;2023-11-18T06:56:41;99201.84;;;5.69;100.00
55604;BME280;41468;48.838;9.330;2023-11-18T06:59:12;99214.88;;;5.59;100.00
55604;BME280;41468;48.838;9.330;2023-11-18T07:01:41;99206.59;;;5.55;100.00
55604;BME280;41468;48.838;9.330;2023-11-18T07:04:09;99209.47;;;5.59;100.00
55604;BME280;41468;48.838;9.330;2023-11-18T07:06:37;99199.09;;;5.52;100.00
55604;BME280;41468;48.838;9.330;2023-11-18T07:09:08;99208.78;;;5.44;100.00
55604;BME280;41468;48.838;9.330;2023-11-18T07:11:40;99210.72;;;5.92;100.00
55604;BME280;41468;48.838;9.330;2023-11-18T07:14:11;99207.75;;;6.11;100.00
55604;BME280;41468;48.838;9.330;2023-11-18T07:16:38;99215.00;;;6.77;100.00
55604;BME280;41468;48.838;9.330;2023-11-18T07:19:07;99204.31;;;7.53;100.00
55604;BME280;41468;48.838;9.330;2023-11-18T07:21:34;99222.28;;;7.20;97.35
55604;BME280;41468;48.838;9.330;2023-11-18T07:24:01;99227.00;;;6.67;95.60
55604;BME280;41468;48.838;9.330;2023-11-18T07:26:30;99223.59;;;6.18;97.62
55604;BME280;41468;48.838;9.330;2023-11-18T07:28:57;99228.03;;;6.23;99.30
55604;BME280;41468;48.838;9.330;2023-11-18T07:31:24;99226.59;;;6.16;99.58
55604;BME280;41468;48.838;9.330;2023-11-18T07:33:51;99231.88;;;6.22;100.00
55604;BME280;41468;48.838;9.330;2023-11-18T07:36:19;99237.78;;;6.24;99.76
55604;BME280;41468;48.838;9.330;2023-11-18T07:38:48;99229.97;;;6.31;98.87
55604;BME280;41468;48.838;9.330;2023-11-18T07:41:16;99227.03;;;6.10;100.00
55604;BME280;41468;48.838;9.330;2023-11-18T07:43:58;99229.63;;;6.15;100.00
55604;BME280;41468;48.838;9.330;2023-11-18T07:46:25;99228.69;;;6.19;100.00
55604;BME280;41468;48.838;9.330;2023-11-18T07:48:53;99227.09;;;6.18;100.00
55604;BME280;41468;48.838;9.330;2023-11-18T07:51:20;99215.13;;;6.28;100.00
55604;BME280;41468;48.838;9.330;2023-11-18T07:53:51;99215.63;;;6.39;100.00
55604;BME280;41468;48.838;9.330;2023-11-18T07:56:19;99216.59;;;6.34;100.00
55604;BME280;41468;48.838;9.330;2023-11-18T07:58:49;99216.75;;;6.38;99.62
55604;BME280;41468;48.838;9.330;2023-11-18T08:01:19;99210.03;;;6.35;99.47
55604;BME280;41468;48.838;9.330;2023-11-18T08:03:48;99217.88;;;6.37;98.93
55604;BME280;41468;48.838;9.330;2023-11-18T08:06:15;99209.88;;;6.49;98.68
55604;BME280;41468;48.838;9.330;2023-11-18T08:08:42;99222.66;;;6.40;98.85
55604;BME280;41468;48.838;9.330;2023-11-18T08:11:11;99231.44;;;6.54;98.95
55604;BME280;41468;48.838;9.330;2023-11-18T08:13:39;99219.47;;;6.55;98.33
55604;BME280;41468;48.838;9.330;2023-11-18T08:16:11;99216.44;;;6.57;99.00
55604;BME280;41468;48.838;9.330;2023-11-18T08:18:39;99211.00;;;6.66;99.41
55604;BME280;41468;48.838;9.330;2023-11-18T08:21:06;99213.41;;;6.67;98.13
55604;BME280;41468;48.838;9.330;2023-11-18T08:23:34;99223.94;;;6.60;98.86
55604;BME280;41468;48.838;9.330;2023-11-18T08:26:00;99226.00;;;6.63;99.10
55604;BME280;41468;48.838;9.330;2023-11-18T08:28:27;99207.66;;;6.69;98.74
55604;BME280;41468;48.838;9.330;2023-11-18T08:30:54;99209.09;;;6.66;99.21
55604;BME280;41468;48.838;9.330;2023-11-18T08:33:21;99221.06;;;6.74;98.95
55604;BME280;41468;48.838;9.330;2023-11-18T08:35:51;99229.53;;;6.81;99.80
55604;BME280;41468;48.838;9.330;2023-11-18T08:38:17;99223.44;;;6.93;98.05
55604;BME280;41468;48.838;9.330;2023-11-18T08:40:44;99216.75;;;6.81;98.67
55604;BME280;41468;48.838;9.330;2023-11-18T08:43:12;99221.69;;;6.79;98.86
55604;BME280;41468;48.838;9.330;2023-11-18T08:45:39;99231.44;;;6.89;99.89
55604;BME280;41468;48.838;9.330;2023-11-18T08:48:08;99224.41;;;6.97;99.74
55604;BME280;41468;48.838;9.330;2023-11-18T08:50:36;99224.56;;;7.18;98.91
55604;BME280;41468;48.838;9.330;2023-11-18T08:53:03;99226.13;;;7.19;98.39
55604;BME280;41468;48.838;9.330;2023-11-18T08:55:37;99226.94;;;7.19;98.73
55604;BME280;41468;48.838;9.330;2023-11-18T08:58:18;99221.53;;;7.11;98.37
55604;BME280;41468;48.838;9.330;2023-11-18T09:00:57;99229.34;;;7.21;97.13
55604;BME280;41468;48.838;9.330;2023-11-18T09:03:50;99205.38;;;7.23;96.73
55604;BME280;41468;48.838;9.330;2023-11-18T09:06:19;99203.56;;;7.36;97.36
55604;BME280;41468;48.838;9.330;2023-11-18T09:08:58;99204.56;;;7.31;96.73
55604;BME280;41468;48.838;9.330;2023-11-18T09:11:27;99198.94;;;7.36;96.75
55604;BME280;41468;48.838;9.330;2023-11-18T09:13:55;99201.28;;;7.46;97.86
55604;BME280;41468;48.838;9.330;2023-11-18T09:16:28;99206.72;;;7.46;97.15
55604;BME280;41468;48.838;9.330;2023-11-18T09:18:57;99208.63;;;7.55;96.14
55604;BME280;41468;48.838;9.330;2023-11-18T09:21:29;99212.91;;;7.64;96.67
55604;BME280;41468;48.838;9.330;2023-11-18T09:23:56;99199.00;;;7.66;95.60
55604;BME280;41468;48.838;9.330;2023-11-18T09:26:23;99194.09;;;7.89;94.83
55604;BME280;41468;48.838;9.330;2023-11-18T09:28:53;99204.53;;;8.08;94.29
55604;BME280;41468;48.838;9.330;2023-11-18T09:31:20;99203.69;;;8.16;92.16
55604;BME280;41468;48.838;9.330;2023-11-18T09:33:48;99208.28;;;8.24;91.43
55604;BME280;41468;48.838;9.330;2023-11-18T09:36:24;99204.88;;;8.27;90.35
55604;BME280;41468;48.838;9.330;2023-11-18T09:38:51;99199.91;;;8.29;90.87
55604;BME280;41468;48.838;9.330;2023-11-18T09:41:22;99207.72;;;8.39;88.86
55604;BME280;41468;48.838;9.330;2023-11-18T09:44:02;99205.59;;;8.45;90.08
55604;BME280;41468;48.838;9.330;2023-11-18T09:46:41;99212.13;;;8.53;90.93
55604;BME280;41468;48.838;9.330;2023-11-18T09:49:17;99213.34;;;8.34;87.35
55604;BME280;41468;48.838;9.330;2023-11-18T09:51:57;99212.31;;;8.18;86.03
55604;BME280;41468;48.838;9.330;2023-11-18T09:57:32;99200.31;;;8.19;85.17
55604;BME280;41468;48.838;9.330;2023-11-18T10:02:49;99203.84;;;8.19;85.61
55604;BME280;41468;48.838;9.330;2023-11-18T10:05:22;99206.50;;;8.28;85.48
55604;BME280;41468;48.838;9.330;2023-11-18T10:07:50;99205.63;;;8.15;84.74
55604;BME280;41468;48.838;9.330;2023-11-18T10:10:18;99193.06;;;8.02;85.99
55604;BME280;41468;48.838;9.330;2023-11-18T10:12:48;99193.25;;;7.97;85.48
55604;BME280;41468;48.838;9.330;2023-11-18T10:15:21;99196.78;;;8.18;87.82
55604;BME280;41468;48.838;9.330;2023-11-18T10:17:51;99189.00;;;8.08;86.03
55604;BME280;41468;48.838;9.330;2023-11-18T10:20:46;99192.50;;;8.17;85.84
55604;BME280;41468;48.838;9.330;2023-11-18T10:23:15;99196.53;;;8.11;84.49
55604;BME280;41468;48.838;9.330;2023-11-18T10:25:54;99187.53;;;8.19;87.06
55604;BME280;41468;48.838;9.330;2023-11-18T10:30:58;99185.66;;;8.32;87.07
55604;BME280;41468;48.838;9.330;2023-11-18T10:33:25;99184.38;;;8.30;84.30
55604;BME280;41468;48.838;9.330;2023-11-18T10:35:58;99189.63;;;8.35;84.46
55604;BME280;41468;48.838;9.330;2023-11-18T10:38:30;99192.63;;;8.21;84.36
55604;BME280;41468;48.838;9.330;2023-11-18T10:40:59;99188.38;;;8.32;86.51
55604;BME280;41468;48.838;9.330;2023-11-18T10:43:28;99190.19;;;8.28;85.15
55604;BME280;41468;48.838;9.330;2023-11-18T10:46:05;99182.09;;;8.40;83.94
55604;BME280;41468;48.838;9.330;2023-11-18T10:48:44;99182.72;;;8.37;84.60
55604;BME280;41468;48.838;9.330;2023-11-18T10:51:16;99170.53;;;8.23;83.14
55604;BME280;41468;48.838;9.330;2023-11-18T10:53:43;99174.53;;;8.46;84.60
55604;BME280;41468;48.838;9.330;2023-11-18T10:56:27;99175.16;;;8.52;84.38
55604;BME280;41468;48.838;9.330;2023-11-18T10:58:56;99177.53;;;8.53;85.92
55604;BME280;41468;48.838;9.330;2023-11-18T11:01:31;99169.44;;;8.66;84.95
55604;BME280;41468;48.838;9.330;2023-11-18T11:03:59;99169.16;;;8.58;83.05
55604;BME280;41468;48.838;9.330;2023-11-18T11:06:30;99165.91;;;8.65;83.67
55604;BME280;41468;48.838;9.330;2023-11-18T11:08:58;99158.13;;;8.76;83.36
55604;BME280;41468;48.838;9.330;2023-11-18T11:11:32;99156.59;;;8.66;81.31
55604;BME280;41468;48.838;9.330;2023-11-18T11:14:04;99166.50;;;8.71;84.68
55604;BME280;41468;48.838;9.330;2023-11-18T11:16:42;99170.41;;;8.61;80.71
55604;BME280;41468;48.838;9.330;2023-11-18T11:19:32;99161.69;;;8.68;80.90
55604;BME280;41468;48.838;9.330;2023-11-18T11:22:10;99161.31;;;8.57;79.34
55604;BME280;41468;48.838;9.330;2023-11-18T11:27:41;99161.38;;;8.69;79.20
55604;BME280;41468;48.838;9.330;2023-11-18T11:32:50;99150.44;;;8.57;80.32
55604;BME280;41468;48.838;9.330;2023-11-18T11:35:22;99149.31;;;8.58;81.63
55604;BME280;41468;48.838;9.330;2023-11-18T11:37:50;99140.78;;;8.59;81.32
55604;BME280;41468;48.838;9.330;2023-11-18T11:40:21;99139.59;;;8.69;84.48
55604;BME280;41468;48.838;9.330;2023-11-18T11:42:52;99141.31;;;8.74;82.35
55604;BME280;41468;48.838;9.330;2023-11-18T11:45:23;99142.81;;;8.83;79.75
55604;BME280;41468;48.838;9.330;2023-11-18T11:47:56;99133.56;;;8.97;80.50
55604;BME280;41468;48.838;9.330;2023-11-18T11:53:49;99116.84;;;8.86;80.58
55604;BME280;41468;48.838;9.330;2023-11-18T11:56:19;99114.69;;;8.92;80.23
55604;BME280;41468;48.838;9.330;2023-11-18T11:58:57;99106.09;;;9.02;80.41
55604;BME280;41468;48.838;9.330;2023-11-18T12:01:27;99105.28;;;8.89;79.91
55604;BME280;41468;48.838;9.330;2023-11-18T12:04:04;99102.22;;;8.91;81.02
55604;BME280;41468;48.838;9.330;2023-11-18T12:06:42;99107.47;;;8.96;79.61
55604;BME280;41468;48.838;9.330;2023-11-18T12:09:10;99107.03;;;9.06;80.69
55604;BME280;41468;48.838;9.330;2023-11-18T12:11:37;99102.25;;;9.03;79.94
55604;BME280;41468;48.838;9.330;2023-11-18T12:14:07;99096.72;;;9.12;80.39
55604;BME280;41468;48.838;9.330;2023-11-18T12:19:38;99076.13;;;9.02;79.54
55604;BME280;41468;48.838;9.330;2023-11-18T12:22:20;99068.84;;;8.94;79.01
55604;BME280;41468;48.838;9.330;2023-11-18T12:32:59;99037.44;;;8.84;82.76
55604;BME280;41468;48.838;9.330;2023-11-18T12:42:05;99026.41;;;8.80;80.89
55604;BME280;41468;48.838;9.330;2023-11-18T12:44:39;99024.81;;;8.79;80.68
55604;BME280;41468;48.838;9.330;2023-11-18T12:47:16;99024.72;;;8.88;80.56
55604;BME280;41468;48.838;9.330;2023-11-18T12:49:48;99016.44;;;8.84;80.69
55604;BME280;41468;48.838;9.330;2023-11-18T12:52:22;99013.09;;;8.67;80.59
55604;BME280;41468;48.838;9.330;2023-11-18T12:54:50;99026.03;;;8.70;80.06
55604;BME280;41468;48.838;9.330;2023-11-18T12:57:29;99018.38;;;8.84;80.87
55604;BME280;41468;48.838;9.330;2023-11-18T12:59:59;99010.06;;;8.80;81.47
55604;BME280;41468;48.838;9.330;2023-11-18T13:02:27;99011.41;;;8.74;79.45
55604;BME280;41468;48.838;9.330;2023-11-18T13:05:05;98999.59;;;8.70;82.23
55604;BME280;41468;48.838;9.330;2023-11-18T13:07:31;99005.97;;;8.74;81.27
55604;BME280;41468;48.838;9.330;2023-11-18T13:09:58;99004.41;;;8.73;82.71
55604;BME280;41468;48.838;9.330;2023-11-18T13:12:26;99010.28;;;8.75;82.93
55604;BME280;41468;48.838;9.330;2023-11-18T13:14:54;99018.91;;;8.65;80.99
55604;BME280;41468;48.838;9.330;2023-11-18T13:17:21;99016.19;;;8.65;82.06
55604;BME280;41468;48.838;9.330;2023-11-18T13:19:48;99015.94;;;8.70;81.34
55604;BME280;41468;48.838;9.330;2023-11-18T13:22:18;99009.22;;;8.68;81.38
55604;BME280;41468;48.838;9.330;2023-11-18T13:25:00;99000.19;;;8.76;81.48
55604;BME280;41468;48.838;9.330;2023-11-18T13:27:27;98999.06;;;8.77;80.87
55604;BME280;41468;48.838;9.330;2023-11-18T13:29:54;98994.88;;;8.79;80.94
55604;BME280;41468;48.838;9.330;2023-11-18T13:32:21;98981.13;;;8.76;80.26
55604;BME280;41468;48.838;9.330;2023-11-18T13:34:53;98985.09;;;8.78;79.45
55604;BME280;41468;48.838;9.330;2023-11-18T13:37:20;98983.19;;;8.79;80.82
55604;BME280;41468;48.838;9.330;2023-11-18T13:39:55;98980.09;;;8.80;79.18
55604;BME280;41468;48.838;9.330;2023-11-18T13:42:26;98968.53;;;8.83;78.44
55604;BME280;41468;48.838;9.330;2023-11-18T13:45:05;98954.00;;;8.79;78.98
55604;BME280;41468;48.838;9.330;2023-11-18T13:47:38;98958.75;;;8.70;77.81
55604;BME280;41468;48.838;9.330;2023-11-18T13:50:11;98949.00;;;8.69;79.10
55604;BME280;41468;48.838;9.330;2023-11-18T13:52:40;98950.38;;;8.63;79.26
55604;BME280;41468;48.838;9.330;2023-11-18T13:55:07;98939.03;;;8.61;79.81
55604;BME280;41468;48.838;9.330;2023-11-18T13:57:35;98939.34;;;8.59;80.51
55604;BME280;41468;48.838;9.330;2023-11-18T14:00:02;98942.00;;;8.68;81.20
55604;BME280;41468;48.838;9.330;2023-11-18T14:02:33;98949.00;;;8.69;80.54
55604;BME280;41468;48.838;9.330;2023-11-18T14:05:03;98934.25;;;8.70;81.68
55604;BME280;41468;48.838;9.330;2023-11-18T14:07:37;98924.06;;;8.67;81.28
55604;BME280;41468;48.838;9.330;2023-11-18T14:10:05;98925.66;;;8.68;82.93